createdAt,value
2022-10-05T00:00:58.975Z,13.52
2022-10-05T00:06:00.391Z,13.45
2022-10-05T00:11:02.162Z,13.30
2022-10-05T00:16:20.964Z,13.12
2022-10-05T00:21:27.004Z,13.10
2022-10-05T00:26:33.087Z,12.97
2022-10-05T00:31:36.114Z,12.73
2022-10-05T00:36:39.069Z,12.60
2022-10-05T00:41:55.176Z,12.62
2022-10-05T00:47:27.824Z,12.57
2022-10-05T00:52:39.988Z,12.58
2022-10-05T00:57:47.209Z,12.50
2022-10-05T01:02:56.629Z,12.42
2022-10-05T01:08:35.951Z,12.40
2022-10-05T01:13:58.319Z,12.30
2022-10-05T01:19:19.188Z,12.29
2022-10-05T01:24:39.077Z,12.24
2022-10-05T01:30:10.090Z,12.19
2022-10-05T01:35:48.034Z,12.10
2022-10-05T01:41:09.730Z,12.02
2022-10-05T01:46:25.412Z,11.97
2022-10-05T01:51:48.125Z,11.88
2022-10-05T01:57:06.908Z,11.81
2022-10-05T02:02:14.017Z,11.67
2022-10-05T02:07:23.144Z,11.58
2022-10-05T02:12:29.685Z,11.45
2022-10-05T02:17:38.638Z,11.40
2022-10-05T02:22:47.911Z,11.47
2022-10-05T02:27:57.622Z,11.52
2022-10-05T02:33:08.231Z,11.45
2022-10-05T02:38:17.237Z,11.51
2022-10-05T02:43:40.005Z,11.37
2022-10-05T02:49:03.614Z,11.34
2022-10-05T02:54:32.630Z,11.44
2022-10-05T02:59:33.957Z,11.57
2022-10-05T03:04:45.968Z,11.60
2022-10-05T03:10:09.464Z,11.52
2022-10-05T03:15:35.289Z,11.41
2022-10-05T03:20:46.822Z,11.36
2022-10-05T03:25:57.626Z,11.52
2022-10-05T03:31:13.001Z,11.56
2022-10-05T03:36:24.352Z,11.56
2022-10-05T03:41:35.495Z,11.62
2022-10-05T03:47:03.101Z,11.62
2022-10-05T03:52:29.242Z,11.62
2022-10-05T03:57:36.157Z,11.77
2022-10-05T04:02:48.481Z,11.82
2022-10-05T04:08:29.262Z,11.83
2022-10-05T04:13:38.349Z,11.80
2022-10-05T04:19:02.210Z,11.85
2022-10-05T04:24:11.849Z,11.80
2022-10-05T04:29:40.637Z,11.77
2022-10-05T04:34:56.932Z,11.89
2022-10-05T04:40:16.975Z,11.82
2022-10-05T04:45:36.392Z,11.90
2022-10-05T04:50:50.490Z,11.84
2022-10-05T04:55:52.171Z,11.59
2022-10-05T05:01:01.143Z,11.47
2022-10-05T05:06:28.677Z,11.53
2022-10-05T05:11:35.984Z,11.49
2022-10-05T05:16:43.585Z,11.43
2022-10-05T05:21:51.208Z,11.40
2022-10-05T05:27:02.416Z,11.36
2022-10-05T05:32:22.109Z,11.49
2022-10-05T05:37:34.064Z,11.44
2022-10-05T05:42:45.108Z,11.54
2022-10-05T05:47:53.720Z,11.62
2022-10-05T05:53:01.240Z,11.65
2022-10-05T05:58:21.878Z,11.68
2022-10-05T06:03:30.979Z,11.62
2022-10-05T06:08:41.132Z,11.78
2022-10-05T06:13:43.533Z,11.75
2022-10-05T06:18:51.434Z,11.78
2022-10-05T06:24:12.547Z,11.81
2022-10-05T06:29:21.955Z,11.62
2022-10-05T06:34:54.393Z,11.73
2022-10-05T06:40:07.914Z,11.79
2022-10-05T06:45:21.483Z,11.77
2022-10-05T06:50:25.869Z,11.90
2022-10-05T06:55:57.885Z,11.98
2022-10-05T07:01:11.911Z,12.10
2022-10-05T07:06:37.374Z,11.95
2022-10-05T07:12:05.554Z,11.90
2022-10-05T07:17:35.743Z,12.00
2022-10-05T07:22:54.963Z,12.08
2022-10-05T07:28:05.373Z,12.17
2022-10-05T07:33:13.687Z,12.06
2022-10-05T07:38:27.157Z,12.29
2022-10-05T07:44:01.635Z,12.38
2022-10-05T07:49:27.309Z,12.45
2022-10-05T07:54:45.104Z,12.43
2022-10-05T08:00:06.190Z,12.40
2022-10-05T08:05:22.164Z,12.53
2022-10-05T08:10:36.982Z,12.54
2022-10-05T08:15:44.688Z,12.58
2022-10-05T08:20:57.859Z,12.65
2022-10-05T08:26:11.325Z,12.75
2022-10-05T08:31:33.910Z,12.64
2022-10-05T08:37:07.036Z,12.68
2022-10-05T08:42:37.094Z,12.71
2022-10-05T08:48:14.953Z,12.81
2022-10-05T08:53:48.873Z,12.96
2022-10-05T08:59:25.837Z,13.15
2022-10-05T09:04:30.140Z,13.20
2022-10-05T09:10:00.796Z,13.12
2022-10-05T09:15:42.326Z,13.51
2022-10-05T09:21:08.456Z,13.63
2022-10-05T09:26:53.393Z,13.82
2022-10-05T09:32:16.465Z,14.18
2022-10-05T09:37:22.625Z,14.88
2022-10-05T09:42:43.324Z,15.49
2022-10-05T09:48:04.373Z,16.24
2022-10-05T09:53:23.087Z,17.64
2022-10-05T09:58:48.159Z,18.25
2022-10-05T10:04:15.585Z,18.51
2022-10-05T10:10:07.840Z,19.36
2022-10-05T10:15:39.113Z,20.27
2022-10-05T10:20:43.396Z,20.59
2022-10-05T10:26:16.094Z,20.83
2022-10-05T10:31:35.596Z,21.73
2022-10-05T10:36:37.651Z,22.64
2022-10-05T10:42:06.810Z,24.76
2022-10-05T10:47:50.335Z,26.61
2022-10-05T10:52:59.747Z,26.39
2022-10-05T10:58:26.111Z,23.02
2022-10-05T11:03:59.115Z,22.00
2022-10-05T11:09:13.494Z,23.87
2022-10-05T11:14:42.838Z,23.69
2022-10-05T11:20:23.993Z,24.57
2022-10-05T11:25:57.404Z,23.19
2022-10-05T11:31:13.202Z,21.89
2022-10-05T11:36:23.580Z,22.54
2022-10-05T11:41:53.844Z,21.17
2022-10-05T11:47:11.901Z,20.33
2022-10-05T11:52:23.140Z,20.37
2022-10-05T11:57:48.553Z,20.50
2022-10-05T12:03:05.001Z,21.29
2022-10-05T12:08:12.569Z,23.54
2022-10-05T12:13:48.037Z,21.26
2022-10-05T12:19:19.471Z,20.27
2022-10-05T12:24:31.472Z,20.96
2022-10-05T12:29:50.672Z,30.01
2022-10-05T12:35:36.223Z,32.57
2022-10-05T12:40:51.550Z,34.02
2022-10-05T12:46:17.865Z,33.46
2022-10-05T12:51:22.287Z,31.44
2022-10-05T12:57:14.312Z,35.90
2022-10-05T13:02:30.370Z,36.38
2022-10-05T13:07:50.491Z,37.17
2022-10-05T13:13:05.696Z,35.31
2022-10-05T13:18:31.994Z,38.75
2022-10-05T13:23:57.693Z,36.65
2022-10-05T13:29:17.607Z,37.45
2022-10-05T13:34:36.992Z,38.53
2022-10-05T13:40:16.673Z,37.17
2022-10-05T13:45:24.957Z,38.01
2022-10-05T13:50:32.682Z,38.72
2022-10-05T13:55:59.482Z,38.83
2022-10-05T14:01:43.005Z,38.69
2022-10-05T14:06:45.467Z,38.84
2022-10-05T14:11:50.463Z,38.32
2022-10-05T14:16:53.406Z,37.36
2022-10-05T14:22:12.949Z,34.08
2022-10-05T14:27:22.687Z,29.18
2022-10-05T14:32:27.714Z,27.67
2022-10-05T14:37:43.120Z,26.32
2022-10-05T14:42:47.331Z,25.49
2022-10-05T14:48:01.601Z,24.88
2022-10-05T14:53:02.868Z,24.05
2022-10-05T14:58:23.693Z,23.47
2022-10-05T15:03:43.124Z,23.00
2022-10-05T15:09:03.167Z,22.69
2022-10-05T15:14:19.853Z,22.36
2022-10-05T15:19:28.426Z,22.12
2022-10-05T15:24:52.384Z,21.81
2022-10-05T15:30:23.215Z,21.57
2022-10-05T15:35:36.909Z,21.45
2022-10-05T15:40:58.741Z,21.30
2022-10-05T15:46:10.404Z,21.23
2022-10-05T15:51:50.767Z,21.25
2022-10-05T15:56:59.200Z,21.16
2022-10-05T16:02:07.070Z,21.12
2022-10-05T16:07:35.192Z,21.02
2022-10-05T16:12:51.450Z,20.93
2022-10-05T16:18:34.092Z,20.87
2022-10-05T16:23:50.809Z,20.79
2022-10-05T16:29:02.140Z,20.66
2022-10-05T16:34:20.617Z,20.57
2022-10-05T16:39:44.880Z,20.49
2022-10-05T16:45:07.406Z,20.41
2022-10-05T16:50:19.869Z,20.34
2022-10-05T16:55:34.754Z,20.19
2022-10-05T17:01:07.860Z,20.10
2022-10-05T17:06:36.944Z,20.04
2022-10-05T17:11:47.223Z,19.93
2022-10-05T17:17:20.557Z,19.80
2022-10-05T17:22:46.346Z,19.72
2022-10-05T17:28:11.653Z,19.61
2022-10-05T17:33:14.216Z,19.51
2022-10-05T17:38:21.731Z,19.40
2022-10-05T17:43:26.526Z,19.36
2022-10-05T17:48:48.948Z,19.29
2022-10-05T17:54:08.764Z,19.23
2022-10-05T17:59:12.076Z,19.18
2022-10-05T18:04:13.316Z,19.12
2022-10-05T18:09:17.477Z,19.03
2022-10-05T18:14:24.573Z,18.95
2022-10-05T18:19:32.351Z,18.82
2022-10-05T18:24:45.433Z,18.69
2022-10-05T18:30:06.188Z,18.63
2022-10-05T18:35:19.927Z,18.63
2022-10-05T18:40:38.163Z,18.61
2022-10-05T18:46:19.142Z,18.52
2022-10-05T18:51:29.375Z,18.52
2022-10-05T18:56:50.895Z,18.44
2022-10-05T19:02:26.098Z,18.35
2022-10-05T19:08:01.104Z,18.31
2022-10-05T19:13:41.893Z,18.26
2022-10-05T19:19:09.466Z,18.21
2022-10-05T19:24:27.754Z,18.16
2022-10-05T19:29:38.006Z,18.12
2022-10-05T19:35:13.876Z,18.09
2022-10-05T19:40:24.312Z,18.04
2022-10-05T19:45:27.898Z,17.99
2022-10-05T19:50:33.480Z,17.92
2022-10-05T19:55:41.812Z,17.92
2022-10-05T20:00:45.682Z,17.89
2022-10-05T20:05:47.969Z,17.88
2022-10-05T20:11:09.978Z,17.81
2022-10-05T20:16:45.440Z,17.84
2022-10-05T20:21:59.776Z,17.79
2022-10-05T20:27:02.345Z,17.84
2022-10-05T20:32:08.710Z,17.82
2022-10-05T20:37:11.566Z,17.70
2022-10-05T20:42:12.915Z,17.59
2022-10-05T20:47:14.503Z,17.52
2022-10-05T20:52:15.768Z,17.50
2022-10-05T20:57:17.095Z,17.46
2022-10-05T21:02:19.457Z,17.45
2022-10-05T21:07:21.599Z,17.43
2022-10-05T21:12:22.912Z,17.36
2022-10-05T21:17:24.193Z,17.29
2022-10-05T21:22:25.653Z,17.26
2022-10-05T21:27:26.964Z,17.16
2022-10-05T21:32:28.266Z,17.17
2022-10-05T21:37:29.544Z,17.09
2022-10-05T21:42:31.193Z,17.08
2022-10-05T21:47:33.506Z,17.05
2022-10-05T21:52:35.668Z,16.98
2022-10-05T21:57:38.049Z,16.93
2022-10-05T22:02:39.526Z,16.89
2022-10-05T22:07:40.894Z,16.86
2022-10-05T22:12:42.580Z,16.85
2022-10-05T22:17:46.003Z,16.84
2022-10-05T22:22:47.621Z,16.73
2022-10-05T22:27:49.653Z,16.73
2022-10-05T22:32:50.993Z,16.68
2022-10-05T22:37:52.343Z,16.70
2022-10-05T22:42:53.633Z,16.60
2022-10-05T22:47:54.932Z,16.59
2022-10-05T22:52:56.251Z,16.64
2022-10-05T22:57:57.577Z,16.58
2022-10-05T23:03:00.990Z,16.59
2022-10-05T23:08:02.673Z,16.52
2022-10-05T23:13:04.881Z,16.47
2022-10-05T23:18:06.217Z,16.54
2022-10-05T23:23:07.539Z,16.54
2022-10-05T23:28:08.889Z,16.49
2022-10-05T23:33:10.282Z,16.44
2022-10-05T23:38:11.571Z,16.34
2022-10-05T23:43:13.025Z,16.30
2022-10-05T23:48:14.596Z,16.21
2022-10-05T23:53:17.422Z,16.10
2022-10-05T23:58:20.007Z,16.01
